Time;durP1;ratioP1;P1;durP2;ratioP2;P2;SDS_P1;SDS_P2;PMS_P1;PMS_P2;Temp;Humidity;BMP_temperature;BMP_pressure;BME280_temperature;BME280_humidity;BME280_pressure;Samples;Min_cycle;Max_cycle;Signal;HPM_P1;HPM_P2
2023/07/26 00:01:53;;;;;;;2.87;1.67;;;19.30;71.30;;;;;;2526900;54;21496;-68
2023/07/26 00:04:19;;;;;;;2.97;1.77;;;19.30;71.30;;;;;;2292001;55;20979;-70
2023/07/26 00:06:46;;;;;;;3.92;1.73;;;19.30;71.20;;;;;;2291453;55;21071;-69
2023/07/26 00:09:13;;;;;;;2.90;1.70;;;19.30;71.20;;;;;;2527194;54;20916;-68
2023/07/26 00:11:39;;;;;;;2.83;1.73;;;19.20;71.10;;;;;;2526587;54;20996;-67
2023/07/26 00:14:07;;;;;;;2.75;1.80;;;19.20;71.10;;;;;;2291305;55;20916;-68
2023/07/26 00:16:34;;;;;;;3.42;1.50;;;19.20;71.10;;;;;;2291244;55;21127;-68
2023/07/26 00:19:01;;;;;;;2.83;1.60;;;19.20;71.20;;;;;;2527066;54;21769;-70
2023/07/26 00:21:29;;;;;;;2.40;1.45;;;19.20;71.20;;;;;;2527950;54;20937;-69
2023/07/26 00:23:56;;;;;;;2.92;1.62;;;19.20;71.10;;;;;;2291341;55;21461;-70
2023/07/26 00:26:22;;;;;;;3.20;1.37;;;19.20;71.10;;;;;;2526925;54;20928;-70
2023/07/26 00:28:49;;;;;;;3.28;1.77;;;19.20;71.20;;;;;;2291534;55;20935;-68
2023/07/26 00:31:16;;;;;;;3.05;1.77;;;19.10;71.10;;;;;;2290830;55;20936;-69
2023/07/26 00:33:43;;;;;;;3.35;2.08;;;19.10;71.00;;;;;;2291310;55;20940;-67
2023/07/26 00:36:09;;;;;;;3.55;1.73;;;19.10;71.10;;;;;;2291881;55;21007;-67
2023/07/26 00:38:36;;;;;;;2.67;1.55;;;19.10;71.10;;;;;;2291951;55;20961;-66
2023/07/26 00:41:03;;;;;;;2.75;1.30;;;19.10;71.10;;;;;;2527137;54;20967;-67
2023/07/26 00:43:29;;;;;;;2.83;1.50;;;19.10;71.00;;;;;;2292512;55;20991;-66
2023/07/26 00:45:56;;;;;;;4.32;1.50;;;19.10;71.10;;;;;;2526906;54;21381;-67
2023/07/26 00:48:22;;;;;;;2.75;1.40;;;19.00;71.00;;;;;;2527749;54;20988;-67
2023/07/26 00:50:51;;;;;;;2.92;1.52;;;19.00;71.00;;;;;;2522633;54;20952;-66
2023/07/26 00:53:18;;;;;;;3.25;1.60;;;19.00;70.80;;;;;;2527553;54;21452;-66
2023/07/26 00:55:44;;;;;;;2.40;1.60;;;19.00;70.90;;;;;;2292113;55;21416;-67
2023/07/26 00:58:11;;;;;;;2.72;1.40;;;18.90;70.80;;;;;;2292345;55;20953;-67
2023/07/26 01:00:40;;;;;;;2.60;1.40;;;18.90;70.80;;;;;;2527350;54;20908;-66
2023/07/26 01:03:08;;;;;;;2.58;1.40;;;18.90;70.80;;;;;;2292494;55;20904;-67
2023/07/26 01:05:39;;;;;;;2.55;1.30;;;18.90;70.80;;;;;;2292932;55;20912;-65
2023/07/26 01:09:45;;;;;;;3.20;1.50;;;18.90;70.70;;;;;;2527669;54;21378;-66
2023/07/26 01:12:22;;;;;;;2.03;1.02;;;18.90;70.20;;;;;;2291920;55;20944;-70
2023/07/26 01:15:00;;;;;;;2.95;1.50;;;18.80;70.40;;;;;;2292056;55;20924;-69
2023/07/26 01:17:29;;;;;;;2.85;1.37;;;18.80;70.30;;;;;;2292228;55;20909;-68
2023/07/26 01:19:56;;;;;;;2.92;1.37;;;18.80;70.70;;;;;;2526548;54;22399;-67
2023/07/26 01:22:22;;;;;;;3.00;1.40;;;18.70;70.70;;;;;;2291801;55;20932;-67
2023/07/26 01:24:51;;;;;;;3.22;1.55;;;18.70;70.70;;;;;;2291941;55;20916;-69
2023/07/26 01:27:17;;;;;;;2.58;1.40;;;18.70;70.80;;;;;;2527022;54;21956;-69
2023/07/26 01:29:51;;;;;;;2.67;1.55;;;18.70;70.90;;;;;;2526951;54;20909;-71
2023/07/26 01:32:17;;;;;;;2.37;1.30;;;18.60;70.80;;;;;;2292279;55;20924;-70
2023/07/26 01:34:43;;;;;;;3.05;1.50;;;18.70;71.00;;;;;;2291518;56;20889;-68
2023/07/26 01:37:10;;;;;;;2.72;1.60;;;18.60;70.90;;;;;;2527425;54;20940;-69
2023/07/26 01:39:36;;;;;;;3.40;1.50;;;18.60;71.00;;;;;;2527524;54;20916;-69
2023/07/26 01:42:03;;;;;;;2.67;1.45;;;18.60;71.00;;;;;;2527221;54;21044;-69
2023/07/26 01:44:38;;;;;;;3.30;1.65;;;18.60;71.10;;;;;;2292565;55;20912;-69
2023/07/26 01:47:05;;;;;;;2.85;1.52;;;18.60;70.90;;;;;;2291812;55;20949;-68
2023/07/26 01:49:32;;;;;;;2.40;1.30;;;18.60;71.10;;;;;;2292240;55;20972;-70
2023/07/26 01:51:59;;;;;;;3.03;1.42;;;18.60;71.10;;;;;;2526113;54;21035;-71
2023/07/26 01:54:25;;;;;;;3.05;1.60;;;18.70;71.30;;;;;;2292255;55;21461;-69
2023/07/26 01:56:52;;;;;;;6.80;2.17;;;18.60;71.20;;;;;;2281615;55;20961;-68
2023/07/26 01:59:18;;;;;;;3.72;1.42;;;18.60;71.20;;;;;;2515921;54;20917;-68
2023/07/26 02:01:44;;;;;;;2.30;1.30;;;18.60;71.20;;;;;;2507195;54;20965;-69
2023/07/26 02:04:11;;;;;;;2.22;1.12;;;18.60;71.20;;;;;;2281166;55;20941;-69
2023/07/26 02:06:38;;;;;;;2.50;1.30;;;18.50;71.10;;;;;;2292503;55;20999;-68
2023/07/26 02:09:04;;;;;;;2.95;1.50;;;18.60;71.20;;;;;;2526147;54;21415;-68
2023/07/26 02:11:32;;;;;;;3.85;1.50;;;18.60;71.20;;;;;;2527384;54;20936;-70
2023/07/26 02:13:59;;;;;;;3.15;1.48;;;18.50;71.00;;;;;;2291176;55;20940;-68
2023/07/26 02:16:26;;;;;;;2.60;1.40;;;18.60;71.20;;;;;;2527236;54;20960;-68
2023/07/26 02:18:53;;;;;;;2.60;1.35;;;18.50;71.10;;;;;;2526850;54;20896;-69
2023/07/26 02:21:19;;;;;;;3.67;1.92;;;18.50;71.00;;;;;;2292191;55;20940;-70
2023/07/26 02:23:46;;;;;;;2.47;1.30;;;18.50;71.00;;;;;;2526926;54;20980;-68
2023/07/26 02:26:12;;;;;;;3.65;1.58;;;18.50;71.00;;;;;;2526782;54;20993;-68
2023/07/26 02:28:40;;;;;;;4.12;1.62;;;18.50;71.00;;;;;;2527362;54;20972;-68
2023/07/26 02:31:06;;;;;;;2.47;1.25;;;18.50;71.10;;;;;;2291570;55;21792;-68
2023/07/26 02:33:33;;;;;;;2.35;1.55;;;18.50;71.10;;;;;;2291951;56;20936;-68
2023/07/26 02:35:59;;;;;;;2.75;1.58;;;18.50;71.10;;;;;;2526535;54;20948;-68
2023/07/26 02:38:26;;;;;;;3.33;1.80;;;18.50;71.10;;;;;;2527742;54;21386;-68
2023/07/26 02:40:52;;;;;;;2.95;1.85;;;18.40;71.00;;;;;;2279086;55;21422;-69
2023/07/26 02:43:19;;;;;;;3.00;1.58;;;18.50;71.10;;;;;;2269988;55;20961;-70
2023/07/26 02:45:53;;;;;;;3.75;1.60;;;18.40;71.00;;;;;;2291743;55;21011;-68
2023/07/26 02:48:20;;;;;;;3.00;1.40;;;18.40;71.00;;;;;;2291719;55;21884;-68
2023/07/26 02:50:46;;;;;;;3.87;1.40;;;18.50;71.90;;;;;;2291757;55;20972;-69
2023/07/26 02:53:12;;;;;;;3.15;1.40;;;18.40;71.00;;;;;;2285694;55;21026;-69
2023/07/26 02:55:43;;;;;;;2.72;1.45;;;18.40;71.00;;;;;;2280245;55;20964;-68
2023/07/26 02:58:10;;;;;;;3.58;1.37;;;18.40;71.00;;;;;;2291985;55;20965;-69
2023/07/26 03:00:36;;;;;;;2.28;1.35;;;18.40;71.00;;;;;;2292729;55;20967;-68
2023/07/26 03:03:02;;;;;;;3.10;1.80;;;18.50;71.10;;;;;;2292214;55;20971;-69
2023/07/26 03:05:30;;;;;;;3.17;2.00;;;18.40;71.00;;;;;;2292423;55;20925;-70
2023/07/26 03:07:57;;;;;;;2.90;1.50;;;18.40;71.10;;;;;;2526966;54;20997;-71
2023/07/26 03:10:24;;;;;;;3.12;1.67;;;18.40;71.10;;;;;;2293095;55;20995;-69
2023/07/26 03:12:50;;;;;;;3.33;1.60;;;18.40;71.10;;;;;;2292103;55;20916;-67
2023/07/26 03:15:16;;;;;;;2.53;1.37;;;18.40;71.00;;;;;;2500997;54;20934;-68
2023/07/26 03:17:45;;;;;;;2.92;1.25;;;18.40;71.00;;;;;;2527178;54;20885;-68
2023/07/26 03:20:12;;;;;;;3.87;1.65;;;18.40;71.00;;;;;;2292004;55;20920;-67
2023/07/26 03:22:39;;;;;;;2.33;1.27;;;18.30;70.90;;;;;;2516758;54;21157;-68
2023/07/26 03:25:06;;;;;;;4.97;1.90;;;18.40;71.00;;;;;;2278618;55;20940;-68
2023/07/26 03:27:34;;;;;;;2.65;1.35;;;18.40;71.00;;;;;;2292475;55;20956;-68
2023/07/26 03:30:00;;;;;;;3.22;1.30;;;18.30;70.90;;;;;;2518394;54;21045;-70
2023/07/26 03:32:26;;;;;;;2.65;1.42;;;18.30;70.90;;;;;;2277474;55;21391;-68
2023/07/26 03:34:53;;;;;;;3.05;1.52;;;18.30;71.00;;;;;;2527021;54;20958;-68
2023/07/26 03:37:19;;;;;;;2.28;1.20;;;18.30;71.00;;;;;;2290813;55;21045;-70
2023/07/26 03:39:45;;;;;;;3.00;1.50;;;18.30;71.00;;;;;;2274655;55;20905;-68
2023/07/26 03:42:12;;;;;;;3.45;1.70;;;18.30;71.00;;;;;;2291607;55;20978;-69
2023/07/26 03:44:38;;;;;;;2.60;1.30;;;18.30;71.10;;;;;;2291830;55;21782;-70
2023/07/26 03:47:05;;;;;;;2.87;1.40;;;18.30;71.10;;;;;;2292889;55;20924;-68
2023/07/26 03:49:32;;;;;;;2.90;1.52;;;18.30;71.10;;;;;;2503433;54;20896;-71
2023/07/26 03:51:58;;;;;;;2.37;1.40;;;18.30;71.10;;;;;;2291843;56;21280;-69
2023/07/26 03:54:24;;;;;;;4.87;1.55;;;18.30;71.10;;;;;;2279236;55;21017;-69
2023/07/26 03:56:50;;;;;;;2.67;1.50;;;18.20;71.00;;;;;;2273794;55;21064;-68
2023/07/26 03:59:18;;;;;;;3.92;1.50;;;18.20;71.00;;;;;;2519974;54;20964;-70
2023/07/26 04:01:45;;;;;;;2.30;1.40;;;18.20;71.00;;;;;;2473669;54;1768518;-69
2023/07/26 04:04:11;;;;;;;5.15;1.95;;;18.20;71.00;;;;;;2283978;55;22057;-70
2023/07/26 04:06:38;;;;;;;2.35;1.40;;;18.20;71.00;;;;;;2527826;54;20956;-66
2023/07/26 04:09:04;;;;;;;2.72;1.58;;;18.20;71.00;;;;;;2292219;55;20928;-65
2023/07/26 04:11:30;;;;;;;2.65;1.45;;;18.20;71.00;;;;;;2292993;56;20909;-67
2023/07/26 04:13:57;;;;;;;3.67;1.55;;;18.20;71.00;;;;;;2526158;54;20959;-70
2023/07/26 04:16:23;;;;;;;3.03;1.60;;;18.20;71.00;;;;;;2292753;55;20948;-69
2023/07/26 04:18:49;;;;;;;3.40;1.60;;;18.20;71.00;;;;;;2526896;54;21005;-68
2023/07/26 04:21:16;;;;;;;2.25;1.35;;;18.20;71.00;;;;;;2292323;56;20992;-68
2023/07/26 04:23:43;;;;;;;3.40;1.67;;;18.20;71.00;;;;;;2527243;54;20932;-69
2023/07/26 04:26:09;;;;;;;3.28;1.60;;;18.20;71.10;;;;;;2527296;54;21546;-69
2023/07/26 04:28:36;;;;;;;3.10;1.70;;;18.20;71.10;;;;;;2291871;55;20948;-68
2023/07/26 04:31:03;;;;;;;3.55;1.70;;;18.20;71.10;;;;;;2527251;54;20921;-69
2023/07/26 04:33:30;;;;;;;2.72;1.55;;;18.20;71.10;;;;;;2527952;54;20984;-69
2023/07/26 04:35:57;;;;;;;3.60;1.75;;;18.20;71.10;;;;;;2292437;56;20936;-70
2023/07/26 04:38:25;;;;;;;4.00;1.70;;;18.20;71.10;;;;;;2292039;55;20925;-67
2023/07/26 04:40:51;;;;;;;3.70;1.80;;;18.10;70.90;;;;;;2291303;55;20961;-70
2023/07/26 04:43:21;;;;;;;2.53;1.60;;;18.20;71.00;;;;;;2279958;55;22126;-69
2023/07/26 04:45:48;;;;;;;2.90;1.67;;;18.10;70.70;;;;;;2519028;54;20940;-69
2023/07/26 04:48:19;;;;;;;2.78;1.83;;;18.10;70.80;;;;;;2502763;54;20981;-68
2023/07/26 04:50:47;;;;;;;3.20;1.83;;;18.10;70.80;;;;;;2290544;55;20959;-68
2023/07/26 04:53:16;;;;;;;2.50;1.48;;;18.10;70.90;;;;;;2526179;54;20885;-69
2023/07/26 04:55:49;;;;;;;3.70;1.90;;;18.10;71.00;;;;;;2527377;54;21011;-69
2023/07/26 04:58:15;;;;;;;4.50;1.70;;;18.10;70.80;;;;;;2291500;56;20912;-70
2023/07/26 05:00:42;;;;;;;2.17;1.37;;;18.10;70.90;;;;;;2292068;55;20947;-69
2023/07/26 05:03:12;;;;;;;5.82;2.33;;;18.10;70.90;;;;;;2290531;55;20932;-69
2023/07/26 05:05:38;;;;;;;3.15;1.48;;;18.00;70.80;;;;;;2518348;54;21001;-68
2023/07/26 05:08:05;;;;;;;2.92;1.50;;;18.00;70.90;;;;;;2496327;55;20962;-68
2023/07/26 05:10:32;;;;;;;2.75;1.60;;;18.00;71.00;;;;;;2288539;55;20960;-70
2023/07/26 05:12:59;;;;;;;3.35;1.60;;;18.10;71.10;;;;;;2527364;54;20905;-69
2023/07/26 05:15:26;;;;;;;2.62;1.30;;;18.10;71.10;;;;;;2527965;54;20952;-67
2023/07/26 05:17:53;;;;;;;3.03;1.60;;;18.00;71.10;;;;;;2527522;54;21642;-68
2023/07/26 05:20:20;;;;;;;2.95;1.42;;;18.00;71.10;;;;;;2291651;55;20979;-67
2023/07/26 05:22:46;;;;;;;3.00;1.27;;;18.00;71.10;;;;;;2292668;55;20916;-70
2023/07/26 05:25:18;;;;;;;2.90;1.55;;;18.00;71.10;;;;;;2527127;54;21015;-69
2023/07/26 05:27:44;;;;;;;3.97;1.62;;;18.00;71.10;;;;;;2527537;54;20917;-69
2023/07/26 05:30:11;;;;;;;3.25;1.80;;;18.00;71.10;;;;;;2292559;55;21023;-69
2023/07/26 05:32:37;;;;;;;3.10;1.75;;;18.10;71.20;;;;;;2292371;55;20996;-69
2023/07/26 05:35:04;;;;;;;3.17;1.60;;;18.00;71.10;;;;;;2500836;54;21002;-70
2023/07/26 05:37:34;;;;;;;3.40;1.70;;;18.10;71.20;;;;;;2291551;55;20981;-70
2023/07/26 05:40:00;;;;;;;3.03;1.48;;;18.00;71.10;;;;;;2275936;55;21476;-70
2023/07/26 05:42:28;;;;;;;2.55;1.40;;;18.10;71.20;;;;;;2527867;54;20996;-69
2023/07/26 05:44:54;;;;;;;3.37;1.50;;;18.10;71.20;;;;;;2527134;54;20961;-68
2023/07/26 05:47:20;;;;;;;3.60;1.40;;;18.10;71.20;;;;;;2291491;55;21770;-70
2023/07/26 05:49:47;;;;;;;3.65;1.48;;;18.10;71.20;;;;;;2291473;55;21517;-71
2023/07/26 05:52:13;;;;;;;2.42;1.33;;;18.10;71.20;;;;;;2527169;54;21054;-68
2023/07/26 05:54:42;;;;;;;2.67;1.37;;;18.10;71.20;;;;;;2527356;54;20917;-69
2023/07/26 05:57:09;;;;;;;4.07;1.48;;;18.10;71.20;;;;;;2527063;54;20945;-68
2023/07/26 05:59:36;;;;;;;2.53;1.30;;;18.10;71.20;;;;;;2291314;55;21007;-68
2023/07/26 06:02:05;;;;;;;6.15;1.50;;;18.10;71.20;;;;;;2527996;54;21776;-70
2023/07/26 06:04:32;;;;;;;2.50;1.40;;;18.10;71.20;;;;;;2527561;54;20944;-69
2023/07/26 06:06:58;;;;;;;2.95;1.50;;;18.10;71.20;;;;;;2292183;55;20972;-70
2023/07/26 06:09:25;;;;;;;2.70;1.45;;;18.10;71.20;;;;;;2527267;54;21028;-69
2023/07/26 06:11:53;;;;;;;2.65;1.55;;;18.10;71.20;;;;;;2501015;54;21010;-68
2023/07/26 06:14:24;;;;;;;2.25;1.27;;;18.10;71.20;;;;;;2291413;55;21110;-69
2023/07/26 06:16:50;;;;;;;3.28;2.00;;;18.20;71.30;;;;;;2527336;54;21011;-70
2023/07/26 06:19:20;;;;;;;3.62;1.60;;;18.20;71.20;;;;;;2291559;55;20932;-69
2023/07/26 06:21:49;;;;;;;3.85;1.50;;;18.20;71.20;;;;;;2526615;54;21668;-70
2023/07/26 06:24:16;;;;;;;3.30;1.40;;;18.20;71.20;;;;;;2524622;54;20916;-69
2023/07/26 06:26:42;;;;;;;2.45;1.33;;;18.20;71.20;;;;;;2527259;54;20921;-70
2023/07/26 06:29:09;;;;;;;2.67;1.40;;;18.20;71.30;;;;;;2527289;54;20953;-67
2023/07/26 06:31:35;;;;;;;3.33;1.50;;;18.20;71.30;;;;;;2292806;56;20952;-69
2023/07/26 06:34:01;;;;;;;2.60;1.40;;;18.20;71.30;;;;;;2527319;54;20964;-69
2023/07/26 06:36:28;;;;;;;3.65;1.40;;;18.20;71.30;;;;;;2525488;54;22281;-68
2023/07/26 06:38:54;;;;;;;2.37;1.30;;;18.20;71.30;;;;;;2527382;54;20928;-68
2023/07/26 06:41:20;;;;;;;4.47;1.70;;;18.20;71.30;;;;;;2527660;54;20972;-71
2023/07/26 06:43:47;;;;;;;2.53;1.40;;;18.20;71.20;;;;;;2292095;55;20924;-69
2023/07/26 06:46:13;;;;;;;2.97;1.52;;;18.20;71.30;;;;;;2294871;55;20906;-70
2023/07/26 06:48:42;;;;;;;2.40;1.23;;;18.20;71.30;;;;;;2271115;55;21417;-69
2023/07/26 06:51:10;;;;;;;2.42;1.30;;;18.30;71.50;;;;;;2292069;55;21000;-68
2023/07/26 06:53:37;;;;;;;2.67;1.48;;;18.30;71.60;;;;;;2528471;54;20904;-70
2023/07/26 06:56:03;;;;;;;2.47;1.48;;;18.30;71.70;;;;;;2292733;55;21335;-68
2023/07/26 06:58:29;;;;;;;2.55;1.50;;;18.30;71.80;;;;;;2528103;54;20920;-70
2023/07/26 07:00:56;;;;;;;3.35;1.85;;;18.30;71.90;;;;;;2527749;54;20948;-70
2023/07/26 07:03:22;;;;;;;2.30;1.20;;;18.40;72.00;;;;;;2273492;55;20937;-70
2023/07/26 07:05:48;;;;;;;5.35;1.40;;;18.40;72.00;;;;;;2527334;54;21486;-70
2023/07/26 07:08:14;;;;;;;2.60;1.50;;;18.40;72.00;;;;;;2293213;55;20968;-69
2023/07/26 07:10:41;;;;;;;3.85;1.50;;;18.50;72.10;;;;;;2293362;55;20904;-68
2023/07/26 07:13:07;;;;;;;4.45;1.80;;;18.60;72.20;;;;;;2291721;55;21053;-69
2023/07/26 07:15:35;;;;;;;3.20;1.48;;;18.60;72.10;;;;;;2526640;54;20948;-69
2023/07/26 07:18:05;;;;;;;2.72;1.60;;;18.60;72.00;;;;;;2527532;54;20948;-71
2023/07/26 07:20:37;;;;;;;2.83;1.40;;;18.70;72.10;;;;;;2528478;54;20944;-69
2023/07/26 07:23:04;;;;;;;2.50;1.17;;;18.70;71.90;;;;;;2274214;55;20953;-71
2023/07/26 07:25:31;;;;;;;2.20;1.20;;;18.60;71.70;;;;;;2279655;55;20920;-71
2023/07/26 07:28:01;;;;;;;2.53;1.30;;;18.70;71.70;;;;;;2293815;55;20896;-71
2023/07/26 07:30:27;;;;;;;2.95;1.58;;;18.80;71.60;;;;;;2273410;55;20996;-71
2023/07/26 07:32:53;;;;;;;2.70;1.30;;;18.80;71.40;;;;;;2527786;54;21680;-71
2023/07/26 07:35:20;;;;;;;2.58;1.30;;;18.90;71.50;;;;;;2292086;55;21917;-69
2023/07/26 07:37:46;;;;;;;2.72;1.33;;;18.90;71.40;;;;;;2528062;54;20953;-66
2023/07/26 07:40:15;;;;;;;2.42;1.40;;;18.90;71.20;;;;;;2279046;55;21562;-66
2023/07/26 07:42:42;;;;;;;2.87;1.20;;;18.90;71.10;;;;;;2521420;54;20972;-66
2023/07/26 07:45:09;;;;;;;2.95;1.30;;;18.90;71.00;;;;;;2292429;55;21814;-67
2023/07/26 07:47:35;;;;;;;2.40;1.20;;;19.00;71.00;;;;;;2523609;54;20956;-69
2023/07/26 07:50:02;;;;;;;2.22;1.12;;;18.90;70.90;;;;;;2273538;55;20997;-68
2023/07/26 07:52:28;;;;;;;2.40;1.30;;;19.00;70.90;;;;;;2292737;55;21845;-67
2023/07/26 07:54:54;;;;;;;2.65;1.20;;;19.00;70.90;;;;;;2527749;54;20929;-68
2023/07/26 07:57:21;;;;;;;2.25;1.20;;;19.00;70.80;;;;;;2277898;55;21721;-68
2023/07/26 07:59:48;;;;;;;2.85;1.50;;;19.00;70.70;;;;;;2288034;55;21008;-68
2023/07/26 08:02:14;;;;;;;3.05;1.55;;;19.00;70.70;;;;;;2292237;56;20975;-66
2023/07/26 08:04:43;;;;;;;2.65;1.27;;;19.00;70.50;;;;;;2527067;54;20985;-67
2023/07/26 08:07:09;;;;;;;2.60;1.20;;;19.00;70.50;;;;;;2293199;55;20988;-66
2023/07/26 08:09:39;;;;;;;2.20;1.10;;;19.00;70.60;;;;;;2528178;54;21604;-66
2023/07/26 08:12:06;;;;;;;2.62;1.25;;;19.10;70.80;;;;;;2292394;55;21008;-68
2023/07/26 08:14:32;;;;;;;2.67;1.40;;;19.10;70.80;;;;;;2510553;54;21384;-68
2023/07/26 08:16:59;;;;;;;2.50;1.37;;;19.00;70.70;;;;;;2518072;54;20909;-68
2023/07/26 08:19:25;;;;;;;4.05;1.50;;;19.10;70.90;;;;;;2528413;54;20885;-67
2023/07/26 08:21:52;;;;;;;2.60;1.30;;;19.10;70.90;;;;;;2292770;55;21004;-67
2023/07/26 08:24:19;;;;;;;2.45;1.12;;;19.10;70.90;;;;;;2291965;55;21040;-67
2023/07/26 08:26:45;;;;;;;2.40;1.30;;;19.10;71.00;;;;;;2527604;54;21374;-67
2023/07/26 08:29:11;;;;;;;3.03;1.30;;;19.10;71.00;;;;;;2528058;54;20937;-67
2023/07/26 08:31:38;;;;;;;2.60;1.20;;;19.20;71.20;;;;;;2522024;54;21181;-67
2023/07/26 08:34:04;;;;;;;2.33;1.00;;;19.20;71.40;;;;;;2274222;55;21449;-68
2023/07/26 08:36:31;;;;;;;2.05;1.10;;;19.20;71.40;;;;;;2293314;55;20952;-68
2023/07/26 08:38:58;;;;;;;2.90;1.20;;;19.20;71.40;;;;;;2504139;54;20992;-68
2023/07/26 08:41:24;;;;;;;3.97;1.20;;;19.30;71.60;;;;;;2292186;55;20936;-67
2023/07/26 08:43:50;;;;;;;2.80;1.55;;;19.30;71.70;;;;;;2292878;55;20980;-68
2023/07/26 08:46:17;;;;;;;2.20;1.20;;;19.40;71.90;;;;;;2291922;55;20896;-69
2023/07/26 08:48:43;;;;;;;2.92;1.40;;;19.40;72.00;;;;;;2527361;54;20968;-68
2023/07/26 08:51:09;;;;;;;2.80;1.37;;;19.50;72.10;;;;;;2275861;55;20942;-67
2023/07/26 08:53:37;;;;;;;2.10;1.20;;;19.60;72.10;;;;;;2291310;55;21398;-68
2023/07/26 08:56:06;;;;;;;2.45;1.27;;;19.60;72.10;;;;;;2527431;54;20980;-69
2023/07/26 08:58:33;;;;;;;2.05;1.10;;;19.70;72.10;;;;;;2527317;54;20940;-68
2023/07/26 09:00:59;;;;;;;4.30;1.30;;;19.80;72.20;;;;;;2527471;54;21505;-70
2023/07/26 09:03:26;;;;;;;2.40;1.40;;;19.80;72.10;;;;;;2527084;54;20987;-67
2023/07/26 09:06:54;;;;;;;2.30;1.20;;;19.90;72.10;;;;;;2527754;54;20999;-71
2023/07/26 09:09:21;;;;;;;3.70;1.37;;;20.00;70.80;;;;;;2527346;54;21322;-68
2023/07/26 09:11:49;;;;;;;2.80;1.40;;;20.10;71.70;;;;;;2292136;55;20973;-69
2023/07/26 09:14:16;;;;;;;2.20;1.12;;;20.10;71.40;;;;;;2527260;54;20912;-69
2023/07/26 09:16:43;;;;;;;2.05;1.10;;;20.20;71.50;;;;;;2283866;55;20989;-68
2023/07/26 09:19:09;;;;;;;2.62;1.20;;;20.20;71.30;;;;;;2278974;55;20912;-69
2023/07/26 09:21:36;;;;;;;2.40;1.20;;;20.30;71.30;;;;;;2291395;55;20993;-67
2023/07/26 09:24:05;;;;;;;1.92;1.00;;;20.40;71.30;;;;;;2292193;55;21683;-69
2023/07/26 09:26:41;;;;;;;1.90;1.10;;;20.40;71.10;;;;;;2527531;54;20952;-69
2023/07/26 09:29:10;;;;;;;3.35;1.10;;;20.50;70.70;;;;;;2527376;54;21723;-69
2023/07/26 09:31:38;;;;;;;2.92;1.30;;;20.50;71.10;;;;;;2527410;54;21035;-67
2023/07/26 09:34:06;;;;;;;2.45;1.08;;;20.50;70.90;;;;;;2527813;54;20956;-68
2023/07/26 09:36:46;;;;;;;3.17;1.12;;;20.60;70.60;;;;;;2292029;55;21016;-69
2023/07/26 09:39:12;;;;;;;2.90;1.27;;;20.60;70.00;;;;;;2292241;55;20996;-69
2023/07/26 09:41:40;;;;;;;3.35;1.30;;;20.60;70.30;;;;;;2292024;55;21075;-69
2023/07/26 09:44:23;;;;;;;4.10;1.58;;;20.70;70.20;;;;;;2292248;56;21041;-68
2023/07/26 09:46:55;;;;;;;2.50;1.15;;;20.70;69.80;;;;;;2291746;55;20979;-69
2023/07/26 09:49:22;;;;;;;3.70;1.05;;;20.70;69.90;;;;;;2292377;55;20935;-69
2023/07/26 09:51:54;;;;;;;2.60;1.15;;;20.70;69.70;;;;;;2507679;54;21015;-72
2023/07/26 09:54:31;;;;;;;3.17;1.30;;;20.80;69.60;;;;;;2522183;54;21012;-68
2023/07/26 09:56:58;;;;;;;3.45;1.50;;;20.80;68.80;;;;;;2527171;54;20944;-70
2023/07/26 09:59:27;;;;;;;2.55;1.25;;;20.80;68.60;;;;;;2526924;54;20952;-70
2023/07/26 10:01:54;;;;;;;2.90;1.10;;;20.70;68.00;;;;;;2527840;54;20938;-71
2023/07/26 10:04:58;;;;;;;3.08;1.27;;;20.70;67.60;;;;;;2526100;54;20944;-67
2023/07/26 10:07:26;;;;;;;3.35;1.10;;;20.60;66.20;;;;;;2526313;54;20940;-66
2023/07/26 10:09:54;;;;;;;2.83;1.10;;;20.50;67.30;;;;;;2292199;55;20953;-67
2023/07/26 10:12:22;;;;;;;2.65;1.20;;;20.40;67.50;;;;;;2527233;54;20960;-67
2023/07/26 10:14:49;;;;;;;2.87;1.33;;;20.40;67.70;;;;;;2291704;55;20980;-67
2023/07/26 10:17:15;;;;;;;1.75;0.90;;;20.30;68.50;;;;;;2273205;56;20941;-68
2023/07/26 10:19:42;;;;;;;2.35;0.85;;;20.20;67.90;;;;;;2291669;55;21004;-67
2023/07/26 10:22:08;;;;;;;2.45;1.02;;;20.20;68.10;;;;;;2292235;55;20932;-69
2023/07/26 10:24:36;;;;;;;2.97;1.23;;;20.20;68.30;;;;;;2291944;55;20912;-67
2023/07/26 10:27:02;;;;;;;2.45;1.10;;;20.10;68.40;;;;;;2504488;54;21055;-69
2023/07/26 10:29:29;;;;;;;2.28;1.10;;;20.10;68.50;;;;;;2288270;55;20944;-69
2023/07/26 10:32:04;;;;;;;2.30;0.90;;;20.00;68.70;;;;;;2292220;55;21016;-68
2023/07/26 10:34:30;;;;;;;2.20;1.02;;;20.00;68.70;;;;;;2527323;54;20956;-66
2023/07/26 10:36:59;;;;;;;2.05;1.00;;;20.00;69.10;;;;;;2292678;55;21004;-68
2023/07/26 10:39:29;;;;;;;2.22;1.20;;;20.00;69.40;;;;;;2291120;55;20940;-68
2023/07/26 10:41:57;;;;;;;2.93;1.40;;;20.00;69.70;;;;;;2292552;56;20935;-68
2023/07/26 10:44:26;;;;;;;2.67;1.23;;;20.00;70.10;;;;;;2291525;55;20968;-67
2023/07/26 10:47:00;;;;;;;3.83;1.42;;;20.00;70.10;;;;;;2526135;54;20980;-68
2023/07/26 10:49:28;;;;;;;3.20;1.42;;;20.10;70.10;;;;;;2290786;55;21351;-67
2023/07/26 10:52:05;;;;;;;2.65;1.20;;;20.10;70.50;;;;;;2273780;55;20997;-69
2023/07/26 10:54:35;;;;;;;3.10;1.15;;;20.10;70.60;;;;;;2527691;54;21752;-70
2023/07/26 10:57:31;;;;;;;3.42;1.10;;;20.20;70.70;;;;;;2292718;55;20944;-71
2023/07/26 11:00:11;;;;;;;3.00;1.33;;;20.20;70.30;;;;;;2521380;54;20990;-71
2023/07/26 11:02:45;;;;;;;2.60;1.27;;;20.30;70.40;;;;;;2279119;55;20996;-70
2023/07/26 11:05:21;;;;;;;2.30;1.10;;;20.40;70.70;;;;;;2292224;55;20956;-68
2023/07/26 11:08:38;;;;;;;2.45;1.12;;;20.40;70.50;;;;;;2527773;54;20988;-68
2023/07/26 11:11:04;;;;;;;1.98;0.90;;;20.50;69.90;;;;;;2527584;54;20940;-68
2023/07/26 11:13:32;;;;;;;2.65;1.10;;;20.60;70.80;;;;;;2527686;54;21410;-67
2023/07/26 11:16:03;;;;;;;3.12;1.00;;;20.60;70.70;;;;;;2525656;54;20992;-70
2023/07/26 11:18:29;;;;;;;2.53;1.27;;;20.70;70.50;;;;;;2527399;54;20901;-70
2023/07/26 11:20:56;;;;;;;2.55;1.20;;;20.70;70.40;;;;;;2527568;54;20995;-69
2023/07/26 11:23:30;;;;;;;2.97;1.30;;;20.80;70.50;;;;;;2528029;54;20948;-69
2023/07/26 11:25:57;;;;;;;3.08;1.52;;;20.80;70.00;;;;;;2527214;54;20932;-69
2023/07/26 11:28:25;;;;;;;3.12;1.20;;;20.90;70.20;;;;;;2527550;54;21949;-68
2023/07/26 11:30:52;;;;;;;3.15;1.15;;;20.90;70.00;;;;;;2294753;55;20957;-67
2023/07/26 11:33:29;;;;;;;2.90;1.40;;;21.00;69.80;;;;;;2527764;54;20936;-69
2023/07/26 11:35:55;;;;;;;2.35;1.10;;;21.00;69.10;;;;;;2292576;55;20952;-69
2023/07/26 11:38:21;;;;;;;3.00;1.40;;;21.10;69.50;;;;;;2291405;55;21408;-69
2023/07/26 11:40:50;;;;;;;3.08;1.25;;;21.10;70.00;;;;;;2269035;55;21002;-70
2023/07/26 11:43:16;;;;;;;2.53;1.17;;;21.10;69.10;;;;;;2291531;55;21005;-70
2023/07/26 11:45:43;;;;;;;2.85;1.45;;;21.20;69.10;;;;;;2281443;55;20986;-68
2023/07/26 11:48:09;;;;;;;2.50;1.20;;;21.20;68.80;;;;;;2284214;55;20928;-70
2023/07/26 11:50:37;;;;;;;3.08;1.33;;;21.30;68.50;;;;;;2527483;54;21013;-68
2023/07/26 11:53:07;;;;;;;2.55;1.30;;;21.30;68.20;;;;;;2291720;55;21465;-70
2023/07/26 11:55:41;;;;;;;4.00;1.70;;;21.30;67.60;;;;;;2293597;55;21983;-69
2023/07/26 11:58:11;;;;;;;3.08;1.08;;;21.40;66.90;;;;;;2504641;54;21058;-70
2023/07/26 12:00:48;;;;;;;2.80;1.30;;;21.40;67.30;;;;;;2292197;55;20960;-66
2023/07/26 12:03:14;;;;;;;3.50;1.60;;;21.40;66.60;;;;;;2292846;55;20921;-69
2023/07/26 12:05:42;;;;;;;3.20;1.20;;;21.40;67.10;;;;;;2527120;54;21461;-69
2023/07/26 12:08:08;;;;;;;3.08;1.48;;;21.40;66.90;;;;;;2291873;55;21511;-69
2023/07/26 12:10:40;;;;;;;3.03;1.40;;;21.40;66.80;;;;;;2281959;55;20945;-70
2023/07/26 12:13:31;;;;;;;3.28;1.60;;;21.40;66.20;;;;;;2283691;55;21401;-69
2023/07/26 12:15:59;;;;;;;3.20;1.35;;;21.40;66.40;;;;;;2291357;55;20936;-70
2023/07/26 12:18:25;;;;;;;2.78;1.42;;;21.40;66.20;;;;;;2292030;56;20944;-70
2023/07/26 12:21:06;;;;;;;3.40;1.20;;;21.40;66.20;;;;;;2522262;54;21045;-70
2023/07/26 12:23:57;;;;;;;3.72;1.70;;;21.30;64.80;;;;;;2496527;54;20976;-70
2023/07/26 12:26:31;;;;;;;3.35;1.40;;;21.40;64.50;;;;;;2527992;54;21052;-69
2023/07/26 12:28:58;;;;;;;2.78;1.40;;;21.40;65.70;;;;;;2527446;54;20963;-69
2023/07/26 12:31:38;;;;;;;2.78;1.40;;;21.40;66.50;;;;;;2292262;55;20987;-67
2023/07/26 12:34:09;;;;;;;2.55;1.30;;;21.40;65.60;;;;;;2292014;56;20996;-68
2023/07/26 12:37:17;;;;;;;3.03;1.35;;;21.40;65.60;;;;;;2519929;54;21499;-70
2023/07/26 12:39:48;;;;;;;2.55;1.20;;;21.40;64.50;;;;;;2284267;55;20932;-68
2023/07/26 12:42:14;;;;;;;3.25;1.35;;;21.40;65.80;;;;;;2527203;54;20948;-69
2023/07/26 12:44:41;;;;;;;3.30;1.70;;;21.40;65.60;;;;;;2526383;54;21418;-69
2023/07/26 12:47:11;;;;;;;3.55;1.48;;;21.40;65.40;;;;;;2527493;54;20944;-70
2023/07/26 12:49:53;;;;;;;2.35;1.10;;;21.40;65.20;;;;;;2526513;54;20966;-70
2023/07/26 12:52:19;;;;;;;2.97;1.55;;;21.40;65.60;;;;;;2527189;54;21084;-70
2023/07/26 12:54:45;;;;;;;4.18;1.60;;;21.40;65.70;;;;;;2292075;56;21526;-69
2023/07/26 12:57:15;;;;;;;2.50;1.30;;;21.50;65.70;;;;;;2504318;54;20921;-70